Mapleton, Oregon
Current Conditions -  °F | °C
As of 7:54 AM on Sunday 21 Dec 2014 (Local Time) from KEUG Reporting Station
Overcast Overcast  
Wind Chill: 55°   Ceiling: 6000
Heat Index: 55°   Visibility: 10mi
Dew Point: 52°   Wind: 9mph
Humidity: 89%   Direction: 220°SW
Pressure: 30.05"   Gusts: NA
Location:  44.03°N, 123.86°W
Report Text: KEUG 211554Z 22008KT 10SM FEW019 SCT025 OVC060 13/11 A3005 RMK AO2 RAE46 SLP175 P0003 T01280111
Loading
Personal Weather Stations






























Interactive Weather Map New forecast layout! Learn more

10-Day Weather Forecast

Advertisements
Track Severe Weather on mobile